sensor_id;sensor_type;location;lat;lon;timestamp;P1;durP1;ratioP1;P2;durP2;ratioP2
8086;SDS011;4086;54.412;9.980;2022-12-07T00:00:30;13.33;;;8.63;;
8086;SDS011;4086;54.412;9.980;2022-12-07T00:02:58;11.90;;;8.53;;
8086;SDS011;4086;54.412;9.980;2022-12-07T00:05:24;18.33;;;10.37;;
8086;SDS011;4086;54.412;9.980;2022-12-07T00:07:50;18.20;;;9.57;;
8086;SDS011;4086;54.412;9.980;2022-12-07T00:10:16;13.60;;;9.03;;
8086;SDS011;4086;54.412;9.980;2022-12-07T00:12:43;15.03;;;9.57;;
8086;SDS011;4086;54.412;9.980;2022-12-07T00:15:09;13.03;;;8.10;;
8086;SDS011;4086;54.412;9.980;2022-12-07T00:17:36;14.40;;;8.97;;
8086;SDS011;4086;54.412;9.980;2022-12-07T00:20:05;15.07;;;9.17;;
8086;SDS011;4086;54.412;9.980;2022-12-07T00:22:32;12.70;;;8.33;;
8086;SDS011;4086;54.412;9.980;2022-12-07T00:24:58;16.57;;;9.50;;
8086;SDS011;4086;54.412;9.980;2022-12-07T00:27:25;15.70;;;9.13;;
8086;SDS011;4086;54.412;9.980;2022-12-07T00:29:51;14.90;;;8.93;;
8086;SDS011;4086;54.412;9.980;2022-12-07T00:32:17;13.67;;;8.23;;
8086;SDS011;4086;54.412;9.980;2022-12-07T00:34:44;14.20;;;8.80;;
8086;SDS011;4086;54.412;9.980;2022-12-07T00:37:11;17.13;;;10.30;;
8086;SDS011;4086;54.412;9.980;2022-12-07T00:39:38;14.90;;;9.17;;
8086;SDS011;4086;54.412;9.980;2022-12-07T00:42:04;16.30;;;9.10;;
8086;SDS011;4086;54.412;9.980;2022-12-07T00:44:31;16.47;;;9.07;;
8086;SDS011;4086;54.412;9.980;2022-12-07T00:46:57;12.07;;;8.03;;
8086;SDS011;4086;54.412;9.980;2022-12-07T00:49:23;11.23;;;8.07;;
8086;SDS011;4086;54.412;9.980;2022-12-07T00:51:50;15.07;;;9.47;;
8086;SDS011;4086;54.412;9.980;2022-12-07T00:54:17;16.37;;;9.60;;
8086;SDS011;4086;54.412;9.980;2022-12-07T00:56:44;15.03;;;9.07;;
8086;SDS011;4086;54.412;9.980;2022-12-07T00:59:11;16.80;;;9.47;;
8086;SDS011;4086;54.412;9.980;2022-12-07T01:01:38;14.53;;;9.00;;
8086;SDS011;4086;54.412;9.980;2022-12-07T01:04:05;14.37;;;9.33;;
8086;SDS011;4086;54.412;9.980;2022-12-07T01:06:31;14.83;;;9.13;;
8086;SDS011;4086;54.412;9.980;2022-12-07T01:08:58;15.83;;;9.33;;
8086;SDS011;4086;54.412;9.980;2022-12-07T01:11:26;14.97;;;9.73;;
8086;SDS011;4086;54.412;9.980;2022-12-07T01:13:55;15.47;;;9.17;;
8086;SDS011;4086;54.412;9.980;2022-12-07T01:16:23;14.50;;;8.20;;
8086;SDS011;4086;54.412;9.980;2022-12-07T01:18:51;12.77;;;8.43;;
8086;SDS011;4086;54.412;9.980;2022-12-07T01:21:19;12.23;;;7.60;;
8086;SDS011;4086;54.412;9.980;2022-12-07T01:23:47;10.67;;;6.87;;
8086;SDS011;4086;54.412;9.980;2022-12-07T01:26:15;12.77;;;7.60;;
8086;SDS011;4086;54.412;9.980;2022-12-07T01:28:43;11.20;;;6.90;;
8086;SDS011;4086;54.412;9.980;2022-12-07T01:31:11;13.27;;;6.97;;
8086;SDS011;4086;54.412;9.980;2022-12-07T01:33:39;10.83;;;6.77;;
8086;SDS011;4086;54.412;9.980;2022-12-07T01:36:07;10.07;;;6.27;;
8086;SDS011;4086;54.412;9.980;2022-12-07T01:38:34;11.20;;;6.30;;
8086;SDS011;4086;54.412;9.980;2022-12-07T01:41:01;12.07;;;6.90;;
8086;SDS011;4086;54.412;9.980;2022-12-07T01:43:28;9.80;;;6.93;;
8086;SDS011;4086;54.412;9.980;2022-12-07T01:45:57;12.70;;;7.33;;
8086;SDS011;4086;54.412;9.980;2022-12-07T01:48:25;16.20;;;9.40;;
8086;SDS011;4086;54.412;9.980;2022-12-07T01:50:53;17.10;;;8.97;;
8086;SDS011;4086;54.412;9.980;2022-12-07T01:55:50;17.63;;;10.70;;
8086;SDS011;4086;54.412;9.980;2022-12-07T01:58:18;18.23;;;10.47;;
8086;SDS011;4086;54.412;9.980;2022-12-07T02:00:44;17.63;;;10.90;;
8086;SDS011;4086;54.412;9.980;2022-12-07T02:03:13;19.53;;;10.70;;
8086;SDS011;4086;54.412;9.980;2022-12-07T02:05:42;19.93;;;10.83;;
8086;SDS011;4086;54.412;9.980;2022-12-07T02:08:09;19.07;;;11.03;;
8086;SDS011;4086;54.412;9.980;2022-12-07T02:10:36;21.47;;;10.83;;
8086;SDS011;4086;54.412;9.980;2022-12-07T02:13:04;17.37;;;10.63;;
8086;SDS011;4086;54.412;9.980;2022-12-07T02:15:35;16.40;;;10.00;;
8086;SDS011;4086;54.412;9.980;2022-12-07T02:18:07;19.50;;;10.33;;
8086;SDS011;4086;54.412;9.980;2022-12-07T02:20:39;17.27;;;9.83;;
8086;SDS011;4086;54.412;9.980;2022-12-07T02:23:20;16.90;;;10.37;;
8086;SDS011;4086;54.412;9.980;2022-12-07T02:26:02;15.60;;;9.97;;
8086;SDS011;4086;54.412;9.980;2022-12-07T02:28:50;14.37;;;8.93;;
8086;SDS011;4086;54.412;9.980;2022-12-07T02:31:22;16.17;;;10.13;;
8086;SDS011;4086;54.412;9.980;2022-12-07T02:33:50;18.87;;;10.50;;
8086;SDS011;4086;54.412;9.980;2022-12-07T02:36:19;17.60;;;10.40;;
8086;SDS011;4086;54.412;9.980;2022-12-07T02:38:48;16.70;;;10.10;;
8086;SDS011;4086;54.412;9.980;2022-12-07T02:41:20;17.33;;;10.40;;
8086;SDS011;4086;54.412;9.980;2022-12-07T02:43:51;17.50;;;10.43;;
8086;SDS011;4086;54.412;9.980;2022-12-07T02:46:21;18.63;;;10.37;;
8086;SDS011;4086;54.412;9.980;2022-12-07T02:48:49;15.57;;;9.67;;
8086;SDS011;4086;54.412;9.980;2022-12-07T02:51:16;15.93;;;9.77;;
8086;SDS011;4086;54.412;9.980;2022-12-07T02:53:43;18.83;;;10.23;;
8086;SDS011;4086;54.412;9.980;2022-12-07T02:56:12;19.17;;;10.70;;
8086;SDS011;4086;54.412;9.980;2022-12-07T02:58:47;18.87;;;10.73;;
8086;SDS011;4086;54.412;9.980;2022-12-07T03:01:22;21.20;;;11.47;;
8086;SDS011;4086;54.412;9.980;2022-12-07T03:03:56;18.07;;;10.60;;
8086;SDS011;4086;54.412;9.980;2022-12-07T03:06:29;20.00;;;10.73;;
8086;SDS011;4086;54.412;9.980;2022-12-07T03:08:59;16.57;;;10.93;;
8086;SDS011;4086;54.412;9.980;2022-12-07T03:11:32;16.80;;;10.23;;
8086;SDS011;4086;54.412;9.980;2022-12-07T03:14:06;18.27;;;9.97;;
8086;SDS011;4086;54.412;9.980;2022-12-07T03:16:35;16.97;;;9.77;;
8086;SDS011;4086;54.412;9.980;2022-12-07T03:19:06;15.90;;;9.90;;
8086;SDS011;4086;54.412;9.980;2022-12-07T03:21:35;17.30;;;10.40;;
8086;SDS011;4086;54.412;9.980;2022-12-07T03:24:05;19.13;;;10.47;;
8086;SDS011;4086;54.412;9.980;2022-12-07T03:26:35;17.20;;;10.40;;
8086;SDS011;4086;54.412;9.980;2022-12-07T03:29:06;18.63;;;10.20;;
8086;SDS011;4086;54.412;9.980;2022-12-07T03:31:35;20.97;;;10.80;;
8086;SDS011;4086;54.412;9.980;2022-12-07T03:34:04;20.37;;;11.47;;
8086;SDS011;4086;54.412;9.980;2022-12-07T03:36:37;16.63;;;9.90;;
8086;SDS011;4086;54.412;9.980;2022-12-07T03:39:07;18.40;;;10.67;;
8086;SDS011;4086;54.412;9.980;2022-12-07T03:41:40;20.93;;;11.97;;
8086;SDS011;4086;54.412;9.980;2022-12-07T03:44:08;20.90;;;10.67;;
8086;SDS011;4086;54.412;9.980;2022-12-07T03:46:36;19.30;;;10.60;;
8086;SDS011;4086;54.412;9.980;2022-12-07T03:49:08;18.07;;;9.67;;
8086;SDS011;4086;54.412;9.980;2022-12-07T03:51:39;19.17;;;10.93;;
8086;SDS011;4086;54.412;9.980;2022-12-07T03:54:09;19.63;;;10.20;;
8086;SDS011;4086;54.412;9.980;2022-12-07T03:56:37;19.27;;;10.87;;
8086;SDS011;4086;54.412;9.980;2022-12-07T03:59:03;17.77;;;10.47;;
8086;SDS011;4086;54.412;9.980;2022-12-07T04:01:32;16.30;;;9.07;;
8086;SDS011;4086;54.412;9.980;2022-12-07T04:03:58;16.90;;;10.20;;
8086;SDS011;4086;54.412;9.980;2022-12-07T04:06:25;21.13;;;10.30;;
8086;SDS011;4086;54.412;9.980;2022-12-07T04:08:51;20.10;;;10.50;;
8086;SDS011;4086;54.412;9.980;2022-12-07T04:11:17;17.03;;;9.80;;
8086;SDS011;4086;54.412;9.980;2022-12-07T04:13:44;20.23;;;10.80;;
8086;SDS011;4086;54.412;9.980;2022-12-07T04:16:27;17.40;;;9.90;;
8086;SDS011;4086;54.412;9.980;2022-12-07T04:18:55;19.10;;;10.87;;
8086;SDS011;4086;54.412;9.980;2022-12-07T04:21:21;17.47;;;9.57;;
8086;SDS011;4086;54.412;9.980;2022-12-07T04:23:48;19.27;;;10.30;;
8086;SDS011;4086;54.412;9.980;2022-12-07T04:26:14;16.47;;;9.47;;
8086;SDS011;4086;54.412;9.980;2022-12-07T04:28:41;16.63;;;8.97;;
8086;SDS011;4086;54.412;9.980;2022-12-07T04:31:07;19.13;;;9.93;;
8086;SDS011;4086;54.412;9.980;2022-12-07T04:33:33;21.23;;;9.83;;
8086;SDS011;4086;54.412;9.980;2022-12-07T04:36:02;19.33;;;9.77;;
8086;SDS011;4086;54.412;9.980;2022-12-07T04:38:29;17.23;;;9.40;;
8086;SDS011;4086;54.412;9.980;2022-12-07T04:40:55;17.57;;;9.40;;
8086;SDS011;4086;54.412;9.980;2022-12-07T04:43:22;15.83;;;8.87;;
8086;SDS011;4086;54.412;9.980;2022-12-07T04:45:48;17.17;;;9.63;;
8086;SDS011;4086;54.412;9.980;2022-12-07T04:48:15;18.53;;;10.07;;
8086;SDS011;4086;54.412;9.980;2022-12-07T04:50:41;18.20;;;10.03;;
8086;SDS011;4086;54.412;9.980;2022-12-07T04:53:09;16.87;;;9.33;;
8086;SDS011;4086;54.412;9.980;2022-12-07T04:55:36;19.40;;;9.37;;
8086;SDS011;4086;54.412;9.980;2022-12-07T04:58:02;17.80;;;10.20;;
8086;SDS011;4086;54.412;9.980;2022-12-07T05:00:28;19.80;;;9.67;;
8086;SDS011;4086;54.412;9.980;2022-12-07T05:02:55;17.87;;;9.50;;
8086;SDS011;4086;54.412;9.980;2022-12-07T05:05:21;16.20;;;8.97;;
8086;SDS011;4086;54.412;9.980;2022-12-07T05:07:48;17.43;;;9.23;;
8086;SDS011;4086;54.412;9.980;2022-12-07T05:10:15;19.80;;;10.13;;
8086;SDS011;4086;54.412;9.980;2022-12-07T05:12:42;20.23;;;10.03;;
8086;SDS011;4086;54.412;9.980;2022-12-07T05:15:08;20.87;;;10.57;;
8086;SDS011;4086;54.412;9.980;2022-12-07T05:17:35;21.73;;;10.63;;
8086;SDS011;4086;54.412;9.980;2022-12-07T05:20:02;20.30;;;10.47;;
8086;SDS011;4086;54.412;9.980;2022-12-07T05:22:28;17.93;;;9.07;;
8086;SDS011;4086;54.412;9.980;2022-12-07T05:24:55;19.23;;;10.30;;
8086;SDS011;4086;54.412;9.980;2022-12-07T05:27:23;18.63;;;9.37;;
8086;SDS011;4086;54.412;9.980;2022-12-07T05:29:49;18.10;;;8.67;;
8086;SDS011;4086;54.412;9.980;2022-12-07T05:32:16;18.83;;;9.23;;
8086;SDS011;4086;54.412;9.980;2022-12-07T05:34:43;19.73;;;9.73;;
8086;SDS011;4086;54.412;9.980;2022-12-07T05:37:09;17.67;;;8.43;;
8086;SDS011;4086;54.412;9.980;2022-12-07T05:39:36;20.50;;;8.93;;
8086;SDS011;4086;54.412;9.980;2022-12-07T05:42:05;16.93;;;8.70;;
8086;SDS011;4086;54.412;9.980;2022-12-07T05:44:39;18.60;;;8.63;;
8086;SDS011;4086;54.412;9.980;2022-12-07T05:47:06;18.77;;;9.50;;
8086;SDS011;4086;54.412;9.980;2022-12-07T05:49:32;21.40;;;10.00;;
8086;SDS011;4086;54.412;9.980;2022-12-07T05:51:59;25.40;;;11.30;;
8086;SDS011;4086;54.412;9.980;2022-12-07T05:54:25;27.47;;;12.87;;
8086;SDS011;4086;54.412;9.980;2022-12-07T05:56:52;28.07;;;12.63;;
8086;SDS011;4086;54.412;9.980;2022-12-07T05:59:18;26.67;;;13.03;;
8086;SDS011;4086;54.412;9.980;2022-12-07T06:01:52;21.07;;;10.47;;
8086;SDS011;4086;54.412;9.980;2022-12-07T06:04:19;18.73;;;9.73;;
8086;SDS011;4086;54.412;9.980;2022-12-07T06:06:46;20.40;;;10.03;;
8086;SDS011;4086;54.412;9.980;2022-12-07T06:09:12;17.33;;;9.23;;
8086;SDS011;4086;54.412;9.980;2022-12-07T06:11:39;19.43;;;8.83;;
8086;SDS011;4086;54.412;9.980;2022-12-07T06:14:23;21.37;;;10.27;;
8086;SDS011;4086;54.412;9.980;2022-12-07T06:16:50;17.90;;;9.00;;
8086;SDS011;4086;54.412;9.980;2022-12-07T06:19:17;16.43;;;8.13;;
8086;SDS011;4086;54.412;9.980;2022-12-07T06:21:44;16.07;;;8.17;;
8086;SDS011;4086;54.412;9.980;2022-12-07T06:24:10;13.57;;;7.53;;
8086;SDS011;4086;54.412;9.980;2022-12-07T06:26:38;17.17;;;7.63;;
8086;SDS011;4086;54.412;9.980;2022-12-07T06:29:04;13.77;;;7.37;;
8086;SDS011;4086;54.412;9.980;2022-12-07T06:31:32;16.63;;;7.27;;
8086;SDS011;4086;54.412;9.980;2022-12-07T06:33:59;18.03;;;7.80;;
8086;SDS011;4086;54.412;9.980;2022-12-07T06:36:26;13.57;;;7.27;;
8086;SDS011;4086;54.412;9.980;2022-12-07T06:38:53;17.13;;;7.40;;
8086;SDS011;4086;54.412;9.980;2022-12-07T06:41:19;16.93;;;7.73;;
8086;SDS011;4086;54.412;9.980;2022-12-07T06:43:46;18.60;;;7.10;;
8086;SDS011;4086;54.412;9.980;2022-12-07T06:46:12;18.40;;;7.93;;
8086;SDS011;4086;54.412;9.980;2022-12-07T06:48:39;15.70;;;7.43;;
8086;SDS011;4086;54.412;9.980;2022-12-07T06:51:06;16.57;;;7.17;;
8086;SDS011;4086;54.412;9.980;2022-12-07T06:53:33;15.33;;;6.87;;
8086;SDS011;4086;54.412;9.980;2022-12-07T06:56:00;17.30;;;7.87;;
8086;SDS011;4086;54.412;9.980;2022-12-07T06:58:26;15.43;;;7.13;;
8086;SDS011;4086;54.412;9.980;2022-12-07T07:00:53;19.00;;;7.37;;
8086;SDS011;4086;54.412;9.980;2022-12-07T07:03:19;16.97;;;7.10;;
8086;SDS011;4086;54.412;9.980;2022-12-07T07:05:46;16.20;;;7.20;;
8086;SDS011;4086;54.412;9.980;2022-12-07T07:08:14;15.00;;;7.13;;
8086;SDS011;4086;54.412;9.980;2022-12-07T07:10:40;14.33;;;8.17;;
8086;SDS011;4086;54.412;9.980;2022-12-07T07:13:07;17.80;;;8.80;;
8086;SDS011;4086;54.412;9.980;2022-12-07T07:15:34;17.93;;;8.83;;
8086;SDS011;4086;54.412;9.980;2022-12-07T07:18:01;17.60;;;7.97;;
8086;SDS011;4086;54.412;9.980;2022-12-07T07:20:29;16.27;;;7.23;;
8086;SDS011;4086;54.412;9.980;2022-12-07T07:22:55;16.30;;;7.30;;
8086;SDS011;4086;54.412;9.980;2022-12-07T07:25:23;12.30;;;6.57;;
8086;SDS011;4086;54.412;9.980;2022-12-07T07:27:49;16.03;;;6.70;;
8086;SDS011;4086;54.412;9.980;2022-12-07T07:30:16;11.63;;;5.83;;
8086;SDS011;4086;54.412;9.980;2022-12-07T07:32:42;13.17;;;6.23;;
8086;SDS011;4086;54.412;9.980;2022-12-07T07:35:09;15.03;;;6.93;;
8086;SDS011;4086;54.412;9.980;2022-12-07T07:37:35;13.00;;;7.13;;
8086;SDS011;4086;54.412;9.980;2022-12-07T07:40:02;14.53;;;7.47;;
8086;SDS011;4086;54.412;9.980;2022-12-07T07:42:30;13.60;;;6.73;;
8086;SDS011;4086;54.412;9.980;2022-12-07T07:44:56;12.97;;;6.70;;
8086;SDS011;4086;54.412;9.980;2022-12-07T07:47:22;16.60;;;9.10;;
8086;SDS011;4086;54.412;9.980;2022-12-07T07:49:49;15.13;;;7.30;;
8086;SDS011;4086;54.412;9.980;2022-12-07T07:52:15;12.80;;;6.77;;
8086;SDS011;4086;54.412;9.980;2022-12-07T07:54:41;13.30;;;6.57;;
8086;SDS011;4086;54.412;9.980;2022-12-07T07:57:08;8.70;;;5.80;;
8086;SDS011;4086;54.412;9.980;2022-12-07T07:59:35;10.43;;;6.27;;
8086;SDS011;4086;54.412;9.980;2022-12-07T08:02:02;10.97;;;5.87;;
8086;SDS011;4086;54.412;9.980;2022-12-07T08:04:28;14.20;;;6.70;;
8086;SDS011;4086;54.412;9.980;2022-12-07T08:06:54;11.43;;;5.17;;
8086;SDS011;4086;54.412;9.980;2022-12-07T08:09:21;8.87;;;4.73;;
8086;SDS011;4086;54.412;9.980;2022-12-07T08:11:47;14.00;;;4.70;;
8086;SDS011;4086;54.412;9.980;2022-12-07T08:14:13;10.37;;;5.07;;
8086;SDS011;4086;54.412;9.980;2022-12-07T08:16:41;10.10;;;4.33;;
8086;SDS011;4086;54.412;9.980;2022-12-07T08:19:07;9.03;;;4.53;;
8086;SDS011;4086;54.412;9.980;2022-12-07T08:21:34;7.27;;;4.13;;
8086;SDS011;4086;54.412;9.980;2022-12-07T08:24:00;7.90;;;4.23;;
8086;SDS011;4086;54.412;9.980;2022-12-07T08:26:26;10.00;;;3.83;;
8086;SDS011;4086;54.412;9.980;2022-12-07T08:28:53;9.37;;;4.13;;
8086;SDS011;4086;54.412;9.980;2022-12-07T08:31:19;7.97;;;3.43;;
8086;SDS011;4086;54.412;9.980;2022-12-07T08:33:47;6.97;;;3.43;;
8086;SDS011;4086;54.412;9.980;2022-12-07T08:36:14;6.33;;;3.47;;
8086;SDS011;4086;54.412;9.980;2022-12-07T08:38:40;7.67;;;3.40;;
8086;SDS011;4086;54.412;9.980;2022-12-07T08:41:08;9.43;;;4.03;;
8086;SDS011;4086;54.412;9.980;2022-12-07T08:43:34;7.17;;;3.37;;
8086;SDS011;4086;54.412;9.980;2022-12-07T08:46:03;10.93;;;4.00;;
8086;SDS011;4086;54.412;9.980;2022-12-07T08:48:33;7.73;;;3.33;;
8086;SDS011;4086;54.412;9.980;2022-12-07T08:51:02;6.43;;;3.00;;
8086;SDS011;4086;54.412;9.980;2022-12-07T08:53:28;6.43;;;2.90;;
8086;SDS011;4086;54.412;9.980;2022-12-07T08:55:55;6.47;;;3.03;;
8086;SDS011;4086;54.412;9.980;2022-12-07T08:58:22;4.93;;;2.73;;
8086;SDS011;4086;54.412;9.980;2022-12-07T09:00:49;4.43;;;2.30;;
8086;SDS011;4086;54.412;9.980;2022-12-07T09:03:15;5.43;;;2.10;;
8086;SDS011;4086;54.412;9.980;2022-12-07T09:05:42;5.77;;;2.43;;
8086;SDS011;4086;54.412;9.980;2022-12-07T09:08:09;5.27;;;2.30;;
8086;SDS011;4086;54.412;9.980;2022-12-07T09:10:36;4.77;;;2.47;;
8086;SDS011;4086;54.412;9.980;2022-12-07T09:13:03;5.60;;;2.00;;
8086;SDS011;4086;54.412;9.980;2022-12-07T09:15:29;6.17;;;1.80;;
8086;SDS011;4086;54.412;9.980;2022-12-07T09:17:56;3.70;;;1.97;;
8086;SDS011;4086;54.412;9.980;2022-12-07T09:20:22;6.87;;;2.10;;
8086;SDS011;4086;54.412;9.980;2022-12-07T09:22:49;7.40;;;2.00;;
8086;SDS011;4086;54.412;9.980;2022-12-07T09:25:16;2.60;;;1.57;;
8086;SDS011;4086;54.412;9.980;2022-12-07T09:27:43;4.33;;;1.50;;
8086;SDS011;4086;54.412;9.980;2022-12-07T09:30:09;2.87;;;1.40;;
8086;SDS011;4086;54.412;9.980;2022-12-07T09:32:36;4.17;;;1.40;;
8086;SDS011;4086;54.412;9.980;2022-12-07T09:35:02;4.70;;;1.70;;
8086;SDS011;4086;54.412;9.980;2022-12-07T09:37:29;5.67;;;1.83;;
8086;SDS011;4086;54.412;9.980;2022-12-07T09:39:56;3.23;;;1.20;;
8086;SDS011;4086;54.412;9.980;2022-12-07T09:42:28;8.77;;;1.63;;
8086;SDS011;4086;54.412;9.980;2022-12-07T09:44:56;8.43;;;1.73;;
8086;SDS011;4086;54.412;9.980;2022-12-07T09:47:23;1.67;;;1.33;;
8086;SDS011;4086;54.412;9.980;2022-12-07T09:49:49;7.83;;;2.17;;
8086;SDS011;4086;54.412;9.980;2022-12-07T09:52:17;1.20;;;1.03;;
8086;SDS011;4086;54.412;9.980;2022-12-07T09:54:46;4.30;;;1.63;;
8086;SDS011;4086;54.412;9.980;2022-12-07T09:57:13;1.73;;;1.20;;
8086;SDS011;4086;54.412;9.980;2022-12-07T09:59:41;2.97;;;1.00;;
8086;SDS011;4086;54.412;9.980;2022-12-07T10:02:21;1.70;;;1.10;;
8086;SDS011;4086;54.412;9.980;2022-12-07T10:04:51;4.77;;;2.10;;
8086;SDS011;4086;54.412;9.980;2022-12-07T10:07:17;6.97;;;1.87;;
8086;SDS011;4086;54.412;9.980;2022-12-07T10:09:44;5.47;;;1.30;;
8086;SDS011;4086;54.412;9.980;2022-12-07T10:12:11;5.07;;;1.70;;
8086;SDS011;4086;54.412;9.980;2022-12-07T10:14:39;2.13;;;1.90;;
8086;SDS011;4086;54.412;9.980;2022-12-07T10:20:14;4.43;;;1.43;;
8086;SDS011;4086;54.412;9.980;2022-12-07T10:22:55;5.37;;;1.40;;
8086;SDS011;4086;54.412;9.980;2022-12-07T10:25:28;2.80;;;1.03;;
8086;SDS011;4086;54.412;9.980;2022-12-07T10:27:57;3.30;;;0.80;;
8086;SDS011;4086;54.412;9.980;2022-12-07T10:30:24;2.37;;;0.90;;
8086;SDS011;4086;54.412;9.980;2022-12-07T10:32:51;5.10;;;1.03;;
8086;SDS011;4086;54.412;9.980;2022-12-07T10:35:20;1.33;;;0.97;;
8086;SDS011;4086;54.412;9.980;2022-12-07T10:37:48;3.10;;;1.03;;
8086;SDS011;4086;54.412;9.980;2022-12-07T10:40:30;1.17;;;0.77;;
8086;SDS011;4086;54.412;9.980;2022-12-07T10:43:05;4.10;;;1.40;;
8086;SDS011;4086;54.412;9.980;2022-12-07T10:46:04;1.30;;;0.80;;
8086;SDS011;4086;54.412;9.980;2022-12-07T10:48:40;0.97;;;0.77;;
8086;SDS011;4086;54.412;9.980;2022-12-07T10:51:13;2.43;;;0.70;;
8086;SDS011;4086;54.412;9.980;2022-12-07T10:53:48;4.47;;;0.93;;
8086;SDS011;4086;54.412;9.980;2022-12-07T10:56:25;2.13;;;0.87;;
8086;SDS011;4086;54.412;9.980;2022-12-07T10:59:12;2.40;;;0.63;;
8086;SDS011;4086;54.412;9.980;2022-12-07T11:01:49;1.87;;;1.03;;
8086;SDS011;4086;54.412;9.980;2022-12-07T11:04:19;1.07;;;0.67;;
8086;SDS011;4086;54.412;9.980;2022-12-07T11:06:54;2.30;;;0.60;;
8086;SDS011;4086;54.412;9.980;2022-12-07T11:12:16;5.40;;;1.67;;
8086;SDS011;4086;54.412;9.980;2022-12-07T11:14:51;3.47;;;0.83;;
8086;SDS011;4086;54.412;9.980;2022-12-07T11:17:22;1.70;;;0.60;;
8086;SDS011;4086;54.412;9.980;2022-12-07T11:19:55;1.03;;;0.60;;
8086;SDS011;4086;54.412;9.980;2022-12-07T11:22:33;2.53;;;0.70;;
8086;SDS011;4086;54.412;9.980;2022-12-07T11:25:10;1.13;;;0.60;;
8086;SDS011;4086;54.412;9.980;2022-12-07T11:27:44;2.57;;;1.07;;
8086;SDS011;4086;54.412;9.980;2022-12-07T11:30:16;1.17;;;0.60;;
8086;SDS011;4086;54.412;9.980;2022-12-07T11:32:51;1.30;;;0.60;;
8086;SDS011;4086;54.412;9.980;2022-12-07T11:35:24;1.80;;;0.60;;
8086;SDS011;4086;54.412;9.980;2022-12-07T11:37:59;1.10;;;1.00;;
8086;SDS011;4086;54.412;9.980;2022-12-07T11:40:29;2.63;;;0.70;;
8086;SDS011;4086;54.412;9.980;2022-12-07T11:43:00;2.57;;;0.67;;
8086;SDS011;4086;54.412;9.980;2022-12-07T11:45:30;3.17;;;0.90;;
8086;SDS011;4086;54.412;9.980;2022-12-07T11:47:58;0.60;;;0.60;;
8086;SDS011;4086;54.412;9.980;2022-12-07T11:50:27;0.67;;;0.50;;
8086;SDS011;4086;54.412;9.980;2022-12-07T11:53:00;3.13;;;0.50;;
8086;SDS011;4086;54.412;9.980;2022-12-07T11:55:29;1.20;;;0.70;;
8086;SDS011;4086;54.412;9.980;2022-12-07T11:58:01;6.80;;;2.60;;
8086;SDS011;4086;54.412;9.980;2022-12-07T12:00:30;4.17;;;1.13;;
8086;SDS011;4086;54.412;9.980;2022-12-07T12:02:58;0.70;;;0.70;;
8086;SDS011;4086;54.412;9.980;2022-12-07T12:05:27;1.70;;;0.83;;
8086;SDS011;4086;54.412;9.980;2022-12-07T12:07:55;2.43;;;0.90;;
8086;SDS011;4086;54.412;9.980;2022-12-07T12:10:30;1.77;;;0.80;;
8086;SDS011;4086;54.412;9.980;2022-12-07T12:13:08;1.50;;;0.60;;
8086;SDS011;4086;54.412;9.980;2022-12-07T12:16:10;1.00;;;0.90;;
8086;SDS011;4086;54.412;9.980;2022-12-07T12:18:49;4.50;;;0.83;;
8086;SDS011;4086;54.412;9.980;2022-12-07T12:21:23;1.50;;;0.73;;
8086;SDS011;4086;54.412;9.980;2022-12-07T12:23:56;2.60;;;0.87;;
8086;SDS011;4086;54.412;9.980;2022-12-07T12:26:25;0.77;;;0.70;;
8086;SDS011;4086;54.412;9.980;2022-12-07T12:28:54;1.03;;;0.80;;
8086;SDS011;4086;54.412;9.980;2022-12-07T12:31:34;3.13;;;0.93;;
8086;SDS011;4086;54.412;9.980;2022-12-07T12:34:04;2.60;;;1.37;;
8086;SDS011;4086;54.412;9.980;2022-12-07T12:36:46;1.33;;;1.00;;
8086;SDS011;4086;54.412;9.980;2022-12-07T12:39:15;1.67;;;0.87;;
8086;SDS011;4086;54.412;9.980;2022-12-07T12:41:59;2.17;;;1.70;;
8086;SDS011;4086;54.412;9.980;2022-12-07T12:44:38;3.67;;;2.07;;
8086;SDS011;4086;54.412;9.980;2022-12-07T12:47:37;4.53;;;2.33;;
8086;SDS011;4086;54.412;9.980;2022-12-07T12:50:17;5.97;;;2.33;;
8086;SDS011;4086;54.412;9.980;2022-12-07T12:52:46;7.10;;;2.83;;
8086;SDS011;4086;54.412;9.980;2022-12-07T12:58:28;2.83;;;1.97;;
8086;SDS011;4086;54.412;9.980;2022-12-07T13:01:32;3.30;;;2.60;;
8086;SDS011;4086;54.412;9.980;2022-12-07T13:04:14;4.73;;;1.93;;
8086;SDS011;4086;54.412;9.980;2022-12-07T13:06:43;1.40;;;1.30;;
8086;SDS011;4086;54.412;9.980;2022-12-07T13:09:17;1.10;;;0.83;;
8086;SDS011;4086;54.412;9.980;2022-12-07T13:11:47;1.00;;;1.00;;
8086;SDS011;4086;54.412;9.980;2022-12-07T13:17:08;1.57;;;0.90;;
8086;SDS011;4086;54.412;9.980;2022-12-07T13:25:22;2.40;;;0.90;;
8086;SDS011;4086;54.412;9.980;2022-12-07T13:27:57;1.07;;;0.80;;
8086;SDS011;4086;54.412;9.980;2022-12-07T13:30:26;1.33;;;0.93;;
8086;SDS011;4086;54.412;9.980;2022-12-07T13:32:54;0.87;;;0.83;;
8086;SDS011;4086;54.412;9.980;2022-12-07T13:35:29;2.70;;;1.40;;
8086;SDS011;4086;54.412;9.980;2022-12-07T13:37:56;1.30;;;1.20;;
8086;SDS011;4086;54.412;9.980;2022-12-07T13:40:23;1.63;;;1.53;;
8086;SDS011;4086;54.412;9.980;2022-12-07T13:42:56;2.80;;;2.27;;
8086;SDS011;4086;54.412;9.980;2022-12-07T13:45:24;6.40;;;1.30;;
8086;SDS011;4086;54.412;9.980;2022-12-07T13:48:14;2.33;;;2.10;;
8086;SDS011;4086;54.412;9.980;2022-12-07T13:50:42;2.10;;;1.53;;
8086;SDS011;4086;54.412;9.980;2022-12-07T13:53:11;3.97;;;2.50;;
8086;SDS011;4086;54.412;9.980;2022-12-07T13:55:44;5.03;;;2.93;;
8086;SDS011;4086;54.412;9.980;2022-12-07T13:58:11;2.60;;;1.80;;
8086;SDS011;4086;54.412;9.980;2022-12-07T14:00:39;5.20;;;3.17;;
8086;SDS011;4086;54.412;9.980;2022-12-07T14:03:20;4.90;;;2.17;;
8086;SDS011;4086;54.412;9.980;2022-12-07T14:06:02;2.13;;;1.83;;
8086;SDS011;4086;54.412;9.980;2022-12-07T14:08:30;3.80;;;2.00;;
8086;SDS011;4086;54.412;9.980;2022-12-07T14:10:57;2.80;;;1.70;;
8086;SDS011;4086;54.412;9.980;2022-12-07T14:13:27;3.33;;;1.70;;
8086;SDS011;4086;54.412;9.980;2022-12-07T14:15:56;1.20;;;1.10;;
8086;SDS011;4086;54.412;9.980;2022-12-07T14:18:27;1.30;;;1.20;;
8086;SDS011;4086;54.412;9.980;2022-12-07T14:21:02;1.40;;;1.30;;
8086;SDS011;4086;54.412;9.980;2022-12-07T14:23:29;2.30;;;1.37;;
8086;SDS011;4086;54.412;9.980;2022-12-07T14:26:04;1.40;;;1.30;;
8086;SDS011;4086;54.412;9.980;2022-12-07T14:28:33;2.77;;;1.77;;
8086;SDS011;4086;54.412;9.980;2022-12-07T14:31:00;2.63;;;2.10;;
8086;SDS011;4086;54.412;9.980;2022-12-07T14:33:29;5.30;;;2.10;;
8086;SDS011;4086;54.412;9.980;2022-12-07T14:35:55;2.20;;;1.63;;
8086;SDS011;4086;54.412;9.980;2022-12-07T14:38:23;5.50;;;3.20;;
8086;SDS011;4086;54.412;9.980;2022-12-07T14:40:50;4.87;;;3.03;;
8086;SDS011;4086;54.412;9.980;2022-12-07T14:43:17;5.63;;;2.70;;
8086;SDS011;4086;54.412;9.980;2022-12-07T14:45:44;6.13;;;3.13;;
8086;SDS011;4086;54.412;9.980;2022-12-07T14:48:11;8.30;;;3.43;;
8086;SDS011;4086;54.412;9.980;2022-12-07T14:50:40;6.87;;;3.30;;
8086;SDS011;4086;54.412;9.980;2022-12-07T14:53:09;3.63;;;2.20;;
8086;SDS011;4086;54.412;9.980;2022-12-07T14:55:38;3.83;;;2.70;;
8086;SDS011;4086;54.412;9.980;2022-12-07T14:58:05;4.40;;;2.70;;
8086;SDS011;4086;54.412;9.980;2022-12-07T15:00:32;5.00;;;4.50;;
8086;SDS011;4086;54.412;9.980;2022-12-07T15:02:59;3.40;;;3.10;;
8086;SDS011;4086;54.412;9.980;2022-12-07T15:05:25;7.40;;;6.73;;
8086;SDS011;4086;54.412;9.980;2022-12-07T15:07:53;5.70;;;5.10;;
8086;SDS011;4086;54.412;9.980;2022-12-07T15:10:20;4.60;;;2.93;;
8086;SDS011;4086;54.412;9.980;2022-12-07T15:12:47;3.90;;;3.13;;
8086;SDS011;4086;54.412;9.980;2022-12-07T15:15:14;4.83;;;4.30;;
8086;SDS011;4086;54.412;9.980;2022-12-07T15:17:40;6.40;;;4.07;;
8086;SDS011;4086;54.412;9.980;2022-12-07T15:20:08;4.00;;;3.13;;
8086;SDS011;4086;54.412;9.980;2022-12-07T15:22:37;4.27;;;2.70;;
8086;SDS011;4086;54.412;9.980;2022-12-07T15:25:05;4.10;;;2.57;;
8086;SDS011;4086;54.412;9.980;2022-12-07T15:27:32;4.23;;;3.83;;
8086;SDS011;4086;54.412;9.980;2022-12-07T15:29:59;5.60;;;4.33;;
8086;SDS011;4086;54.412;9.980;2022-12-07T15:32:26;23.10;;;14.40;;
8086;SDS011;4086;54.412;9.980;2022-12-07T15:34:52;12.27;;;6.67;;
8086;SDS011;4086;54.412;9.980;2022-12-07T15:37:18;6.03;;;4.93;;